Time;durP1;ratioP1;P1;durP2;ratioP2;P2;SDS_P1;SDS_P2;PMS_P1;PMS_P2;Temp;Humidity;BMP_temperature;BMP_pressure;BME280_temperature;BME280_humidity;BME280_pressure;Samples;Min_cycle;Max_cycle;Signal;HPM_P1;HPM_P2
2021/08/29 11:17:25;;;;;;;3.63;1.80;;;;;;;24.33;42.92;101394.75;5133926;27;81320;-74
2021/08/29 11:22:52;;;;;;;2.95;1.27;;;;;;;24.36;41.05;101390.75;4966880;27;57244;-74
2021/08/29 11:25:24;;;;;;;3.13;1.20;;;;;;;24.25;40.72;101390.09;5011787;28;20098;-76
2021/08/29 11:27:54;;;;;;;2.53;1.10;;;;;;;24.07;41.21;101400.50;5029303;28;20061;-76
2021/08/29 11:30:34;;;;;;;2.15;1.02;;;;;;;23.86;40.96;101390.00;5037492;28;20049;-75
2021/08/29 11:33:04;;;;;;;2.55;1.00;;;;;;;23.62;41.86;101390.03;5035003;28;20515;-75
2021/08/29 11:35:52;;;;;;;2.70;1.30;;;;;;;23.40;42.77;101391.53;5036449;28;20053;-75
2021/08/29 11:38:32;;;;;;;2.25;1.10;;;;;;;23.14;43.30;101393.63;5034783;28;20064;-77
2021/08/29 11:41:15;;;;;;;2.53;1.15;;;;;;;22.93;43.55;101394.09;5037790;28;20081;-76
2021/08/29 11:43:49;;;;;;;1.90;1.23;;;;;;;22.73;44.33;101392.63;5037071;28;20053;-74
2021/08/29 11:46:27;;;;;;;2.60;1.50;;;;;;;22.56;44.98;101396.38;5037780;23;21288;-73
2021/08/29 11:49:01;;;;;;;2.50;1.30;;;;;;;22.36;44.19;101390.22;5023686;28;20078;-73
2021/08/29 11:51:34;;;;;;;3.53;1.83;;;;;;;22.25;45.18;101396.91;5007740;28;20065;-73
2021/08/29 11:54:05;;;;;;;;;;;;;;;21.85;45.00;101394.72;4992795;28;20578;-73
2021/08/29 11:56:34;;;;;;;1.95;1.20;;;;;;;21.94;44.90;101390.13;4992695;28;20017;-73
2021/08/29 11:59:06;;;;;;;2.92;1.30;;;;;;;21.90;45.51;101391.50;4993463;28;20474;-74
2021/08/29 12:01:34;;;;;;;2.83;1.50;;;;;;;21.80;45.24;101387.97;5019677;23;20179;-79
2021/08/29 12:04:04;;;;;;;3.00;1.40;;;;;;;21.67;45.99;101382.84;5013852;28;20513;-72
2021/08/29 12:07:05;;;;;;;3.08;1.60;;;;;;;21.60;47.13;101390.91;5014468;28;20046;-76
2021/08/29 12:09:41;;;;;;;3.55;1.67;;;;;;;21.54;47.44;101393.47;5014553;28;20495;-72
2021/08/29 12:12:16;;;;;;;3.85;1.58;;;;;;;21.49;48.71;101393.09;5014942;28;20050;-73
2021/08/29 12:14:43;;;;;;;2.92;1.63;;;;;;;;;;5013559;28;20137;-74
2021/08/29 12:17:12;;;;;;;2.90;1.60;;;;;;;21.37;47.32;101394.34;5014951;28;20046;-73
2021/08/29 12:19:40;;;;;;;3.35;1.90;;;;;;;21.34;47.24;101390.00;5013334;28;20050;-73
2021/08/29 12:22:09;;;;;;;3.50;1.75;;;;;;;21.31;47.48;101384.81;5012476;28;20125;-73
2021/08/29 12:24:39;;;;;;;4.53;2.15;;;;;;;21.30;47.85;101391.38;5016559;28;20079;-72
2021/08/29 12:27:08;;;;;;;4.72;2.40;;;;;;;21.30;49.24;101393.25;5014809;28;20180;-73
2021/08/29 12:29:43;;;;;;;4.75;3.10;;;;;;;21.30;50.09;101396.03;5007159;28;20077;-73
2021/08/29 12:32:19;;;;;;;4.35;2.80;;;;;;;21.24;48.74;101389.25;5010503;28;20085;-73
2021/08/29 12:34:59;;;;;;;5.10;3.38;;;;;;;21.24;50.05;101384.59;5000214;28;20077;-73
2021/08/29 12:37:29;;;;;;;5.57;3.67;;;;;;;21.23;48.53;101384.75;4994591;28;20138;-72
2021/08/29 12:40:04;;;;;;;5.20;3.65;;;;;;;21.24;50.32;101383.72;4993583;28;20084;-73
2021/08/29 12:42:32;;;;;;;5.63;3.25;;;;;;;21.20;49.30;101382.28;5029256;28;20129;-73
2021/08/29 12:45:00;;;;;;;5.28;3.90;;;;;;;21.21;49.35;101372.97;5012378;28;20136;-72
2021/08/29 12:47:30;;;;;;;5.30;3.58;;;;;;;21.21;49.51;101373.84;5009245;28;20080;-72
2021/08/29 12:49:58;;;;;;;5.53;3.90;;;;;;;21.19;49.32;101381.41;5000266;28;20096;-71
2021/08/29 12:52:27;;;;;;;5.53;3.80;;;;;;;21.20;49.70;101374.88;4991223;28;20074;-71
2021/08/29 12:54:54;;;;;;;4.82;3.22;;;;;;;21.20;49.38;101365.72;4993962;28;20092;-72
2021/08/29 12:57:22;;;;;;;5.32;4.18;;;;;;;21.22;49.97;101367.31;5011995;28;20281;-72
2021/08/29 12:59:56;;;;;;;5.30;4.00;;;;;;;21.25;50.91;101377.16;5011900;28;20080;-72
2021/08/29 13:02:24;;;;;;;4.82;3.78;;;;;;;21.23;50.25;101366.28;5011640;28;20046;-73
2021/08/29 13:04:53;;;;;;;5.95;4.22;;;;;;;21.24;49.84;101369.91;5011396;28;20301;-72
2021/08/29 13:07:20;;;;;;;5.45;4.28;;;;;;;21.25;50.47;101366.97;5010886;28;20132;-78
2021/08/29 13:09:47;;;;;;;5.38;4.13;;;;;;;21.26;50.55;101368.72;5032611;28;20053;-75
2021/08/29 13:12:29;;;;;;;5.75;4.70;;;;;;;21.31;51.71;101367.38;5003965;28;20092;-76
2021/08/29 13:14:59;;;;;;;5.43;4.13;;;;;;;21.29;50.73;101372.19;5011180;28;20050;-76
2021/08/29 13:17:28;;;;;;;6.25;3.90;;;;;;;21.33;51.06;101368.09;5011616;28;20050;-75
2021/08/29 13:20:03;;;;;;;5.18;3.78;;;;;;;21.37;52.18;101361.22;5017255;28;20136;-75
2021/08/29 13:22:35;;;;;;;5.32;3.65;;;;;;;21.39;51.38;101360.03;5003827;28;20120;-76
2021/08/29 13:25:25;;;;;;;6.07;4.00;;;;;;;21.38;52.07;101355.53;5006932;28;20050;-76
2021/08/29 13:27:54;;;;;;;5.18;3.45;;;;;;;21.40;50.65;101349.84;5006073;28;20120;-75
2021/08/29 13:30:23;;;;;;;5.63;3.85;;;;;;;21.44;51.11;101354.00;4991981;28;20416;-77
2021/08/29 13:32:51;;;;;;;5.88;4.07;;;;;;;21.45;51.27;101358.50;5010978;28;20129;-77
2021/08/29 13:35:23;;;;;;;6.22;4.03;;;;;;;21.48;51.08;101358.19;5011864;28;20050;-77
2021/08/29 13:37:55;;;;;;;5.93;3.60;;;;;;;21.49;51.94;101357.19;5011316;28;20096;-78
2021/08/29 13:40:24;;;;;;;4.85;3.38;;;;;;;21.51;51.49;101350.44;5012526;28;20132;-77
2021/08/29 13:42:59;;;;;;;5.22;3.60;;;;;;;21.55;52.13;101353.75;5012135;28;20050;-76
2021/08/29 13:45:29;;;;;;;5.18;3.40;;;;;;;21.54;51.57;101352.88;4993622;28;20145;-76
2021/08/29 13:47:58;;;;;;;6.05;3.90;;;;;;;21.57;51.33;101351.72;4994123;28;20440;-77
2021/08/29 13:50:27;;;;;;;4.55;3.40;;;;;;;21.60;51.52;101348.59;5027059;28;20226;-77
2021/08/29 13:53:02;;;;;;;6.05;4.35;;;;;;;21.63;52.05;101346.41;5008234;28;20059;-74
2021/08/29 13:55:30;;;;;;;5.57;3.97;;;;;;;21.63;51.29;101348.28;5012138;28;20108;-76
2021/08/29 13:57:57;;;;;;;5.75;4.05;;;;;;;21.62;51.13;101344.66;5011145;28;20054;-77
2021/08/29 14:00:24;;;;;;;6.22;3.63;;;;;;;21.65;51.34;101346.25;5012468;28;20116;-75
2021/08/29 14:02:50;;;;;;;5.40;3.70;;;;;;;21.66;51.17;101347.09;5009357;28;20140;-77
2021/08/29 14:05:17;;;;;;;5.18;3.45;;;;;;;21.67;51.04;101343.28;5010867;28;20046;-77
2021/08/29 14:07:45;;;;;;;5.50;3.83;;;;;;;21.68;51.43;101350.56;5010844;28;20050;-76
2021/08/29 14:10:12;;;;;;;6.07;3.83;;;;;;;21.68;51.47;101354.19;5016006;28;20113;-76
2021/08/29 14:12:39;;;;;;;4.93;3.30;;;;;;;21.67;51.43;101346.91;4997364;28;20096;-74
2021/08/29 14:15:07;;;;;;;4.65;3.20;;;;;;;21.69;51.10;101352.28;5007018;28;20148;-74
2021/08/29 14:17:33;;;;;;;3.72;2.70;;;;;;;21.68;51.58;101350.56;5016266;28;20065;-75
2021/08/29 14:20:00;;;;;;;3.83;2.75;;;;;;;21.68;51.50;101347.78;5011636;28;20091;-74
2021/08/29 14:22:26;;;;;;;4.32;2.47;;;;;;;21.69;51.44;101346.75;5010312;28;20042;-73
2021/08/29 14:24:53;;;;;;;4.05;2.35;;;;;;;21.69;52.10;101350.41;5010461;28;20499;-74
2021/08/29 14:27:20;;;;;;;3.65;2.53;;;;;;;21.72;51.34;101346.44;5009153;28;20125;-75
2021/08/29 14:29:46;;;;;;;3.92;2.00;;;;;;;21.72;51.92;101338.16;5010734;28;20415;-73
2021/08/29 14:32:13;;;;;;;3.28;2.17;;;;;;;21.75;51.81;101346.09;5001567;28;20048;-74
2021/08/29 14:34:40;;;;;;;2.83;1.75;;;;;;;21.75;51.89;101338.69;4990132;28;20397;-75
2021/08/29 14:37:06;;;;;;;3.38;1.83;;;;;;;21.77;52.07;101336.63;4991572;28;20050;-75
2021/08/29 14:39:33;;;;;;;3.83;1.55;;;;;;;21.79;51.75;101344.75;4991330;28;20078;-73
2021/08/29 14:42:04;;;;;;;2.60;1.58;;;;;;;21.83;52.10;101335.09;4991402;28;20047;-75
2021/08/29 14:44:31;;;;;;;2.70;1.60;;;;;;;21.80;52.13;101340.97;4991261;28;20050;-74
2021/08/29 14:46:58;;;;;;;3.00;1.50;;;;;;;21.82;51.73;101342.56;4991346;28;20046;-74
2021/08/29 14:49:25;;;;;;;3.22;1.65;;;;;;;21.82;51.87;101341.69;4990613;28;20125;-75
2021/08/29 14:51:51;;;;;;;2.88;1.70;;;;;;;21.84;52.11;101342.38;4990651;28;20043;-73
2021/08/29 14:54:18;;;;;;;2.55;1.38;;;;;;;21.85;52.15;101347.72;5009233;28;20499;-73
2021/08/29 14:56:44;;;;;;;3.92;1.73;;;;;;;21.87;52.25;101342.03;5016332;28;20064;-73
2021/08/29 14:59:11;;;;;;;3.13;1.90;;;;;;;21.88;51.79;101341.03;5010000;28;20084;-74
2021/08/29 15:01:37;;;;;;;2.95;1.80;;;;;;;21.89;51.76;101342.75;5009629;28;20285;-74
2021/08/29 15:04:04;;;;;;;3.80;2.22;;;;;;;21.91;52.26;101340.66;5010036;28;20088;-74
2021/08/29 15:06:31;;;;;;;3.42;2.40;;;;;;;21.92;52.41;101343.28;5008835;28;20053;-74
2021/08/29 15:08:58;;;;;;;4.75;2.78;;;;;;;21.93;51.96;101342.25;5009973;28;20262;-74
2021/08/29 15:11:24;;;;;;;4.60;3.03;;;;;;;21.95;51.79;101342.97;5008416;28;20176;-73
2021/08/29 15:13:51;;;;;;;4.28;3.03;;;;;;;21.96;52.40;101341.94;4998960;28;20465;-74
2021/08/29 15:16:17;;;;;;;3.90;2.75;;;;;;;21.98;52.19;101342.69;4993575;28;20046;-75
2021/08/29 15:18:44;;;;;;;4.30;2.70;;;;;;;21.99;52.11;101335.22;4990307;28;20134;-76
2021/08/29 15:21:10;;;;;;;4.28;2.30;;;;;;;21.99;52.03;101341.63;4998873;28;20050;-73
2021/08/29 15:23:37;;;;;;;3.20;2.10;;;;;;;22.00;51.87;101339.72;5001253;28;20052;-74
2021/08/29 15:26:04;;;;;;;3.75;2.30;;;;;;;22.01;52.40;101333.16;5009761;28;20415;-74
2021/08/29 15:28:30;;;;;;;3.45;2.17;;;;;;;22.02;52.27;101341.31;5008356;28;20042;-74
2021/08/29 15:30:58;;;;;;;2.95;1.98;;;;;;;22.04;51.83;101338.38;5009889;28;20459;-74
2021/08/29 15:33:28;;;;;;;3.88;1.98;;;;;;;22.07;52.76;101343.59;5008585;28;20137;-74
2021/08/29 15:35:55;;;;;;;3.15;1.90;;;;;;;22.06;52.54;101349.28;5008540;28;20104;-74
2021/08/29 15:38:22;;;;;;;2.88;1.67;;;;;;;22.05;52.09;101340.13;5009616;28;20065;-75
2021/08/29 15:40:49;;;;;;;2.80;1.75;;;;;;;22.05;52.38;101340.13;5009906;28;20451;-75
2021/08/29 15:43:17;;;;;;;2.95;1.70;;;;;;;22.08;52.29;101342.53;5007692;28;20046;-74
2021/08/29 15:45:44;;;;;;;2.20;1.40;;;;;;;22.08;52.45;101338.91;5009976;28;20132;-74
2021/08/29 15:48:11;;;;;;;2.80;1.40;;;;;;;22.09;52.05;101337.88;5007737;28;20073;-74
2021/08/29 15:50:40;;;;;;;2.55;1.45;;;;;;;22.13;52.32;101342.06;5010125;28;20145;-75
2021/08/29 15:53:07;;;;;;;2.58;1.63;;;;;;;22.11;52.30;101344.97;5008972;28;20472;-74
2021/08/29 15:55:33;;;;;;;2.80;1.40;;;;;;;22.13;52.83;101342.91;5009960;28;20488;-74
2021/08/29 15:58:01;;;;;;;2.15;1.35;;;;;;;22.15;52.27;101340.00;5005986;28;20137;-76
2021/08/29 16:00:27;;;;;;;3.10;1.40;;;;;;;22.16;52.53;101345.34;5009277;28;20117;-75
2021/08/29 16:02:54;;;;;;;2.58;1.40;;;;;;;22.17;52.39;101343.44;5006328;28;20476;-76
2021/08/29 16:05:24;;;;;;;3.22;1.30;;;;;;;22.20;52.68;101344.00;5007411;28;20088;-72
2021/08/29 16:07:51;;;;;;;2.10;1.33;;;;;;;22.21;52.18;101345.72;5007146;28;20603;-70
2021/08/29 16:10:19;;;;;;;2.38;1.27;;;;;;;22.21;52.56;101340.19;5010552;28;20050;-72
2021/08/29 16:12:46;;;;;;;2.42;1.20;;;;;;;22.24;52.43;101341.72;5009092;28;20488;-72
2021/08/29 16:15:14;;;;;;;2.03;1.25;;;;;;;22.25;51.90;101338.81;5011131;28;20092;-73
2021/08/29 16:17:41;;;;;;;1.48;1.10;;;;;;;22.24;52.11;101331.53;5008464;28;20056;-72
2021/08/29 16:20:11;;;;;;;2.35;1.30;;;;;;;22.26;52.20;101337.78;5009051;28;20053;-72
2021/08/29 16:22:37;;;;;;;3.08;1.17;;;;;;;22.26;52.02;101342.44;5009485;28;20439;-72
2021/08/29 16:25:06;;;;;;;2.38;1.40;;;;;;;22.26;52.16;101337.78;5010343;28;20085;-73
2021/08/29 16:27:33;;;;;;;1.73;1.10;;;;;;;22.26;51.89;101337.78;5007921;28;20050;-72
2021/08/29 16:29:59;;;;;;;2.13;1.40;;;;;;;22.27;52.31;101338.66;5010342;28;20061;-72
2021/08/29 16:32:27;;;;;;;2.22;1.38;;;;;;;22.28;51.80;101337.63;5008769;28;20151;-73
2021/08/29 16:34:54;;;;;;;2.55;1.20;;;;;;;22.25;52.34;101337.94;5009014;28;20077;-72
2021/08/29 16:37:21;;;;;;;2.83;1.33;;;;;;;22.25;51.94;101344.34;5009423;28;20081;-72
2021/08/29 16:39:51;;;;;;;2.70;1.45;;;;;;;22.25;52.14;101340.72;5009720;28;20046;-71
2021/08/29 16:42:17;;;;;;;2.80;1.50;;;;;;;22.25;52.15;101333.28;5009610;28;20782;-72
2021/08/29 16:44:44;;;;;;;2.13;1.17;;;;;;;22.25;51.78;101338.81;5009170;28;20392;-71
2021/08/29 16:47:11;;;;;;;2.55;1.50;;;;;;;22.24;51.98;101342.59;5007973;28;20565;-72
2021/08/29 16:49:38;;;;;;;2.15;1.33;;;;;;;22.24;52.37;101333.44;5009896;28;20069;-72
2021/08/29 16:52:05;;;;;;;3.33;1.40;;;;;;;22.25;52.13;101333.28;5009487;28;20460;-72
2021/08/29 16:54:32;;;;;;;2.50;1.25;;;;;;;22.25;51.92;101338.81;5009011;28;20125;-72
2021/08/29 16:56:58;;;;;;;2.22;1.00;;;;;;;22.25;52.27;101330.50;5009408;28;20476;-72
2021/08/29 16:59:25;;;;;;;2.05;1.15;;;;;;;22.26;52.07;101332.25;5009302;28;20046;-74
2021/08/29 17:01:51;;;;;;;2.50;1.20;;;;;;;22.26;52.27;101332.25;5012944;28;20127;-76
2021/08/29 17:04:18;;;;;;;2.78;1.58;;;;;;;22.27;52.41;101336.75;5001615;28;20483;-72
2021/08/29 17:06:45;;;;;;;2.30;1.30;;;;;;;22.28;52.40;101344.03;5004671;28;20128;-74
2021/08/29 17:09:12;;;;;;;2.80;1.35;;;;;;;22.29;52.54;101331.94;5002749;28;20047;-74
2021/08/29 17:11:38;;;;;;;3.20;1.52;;;;;;;22.31;52.48;101345.59;4996128;28;20038;-74
2021/08/29 17:14:06;;;;;;;2.67;1.50;;;;;;;22.31;52.16;101334.53;5007437;28;20107;-74
2021/08/29 17:16:33;;;;;;;1.92;1.30;;;;;;;22.32;52.51;101336.22;4995218;28;20045;-73
2021/08/29 17:19:00;;;;;;;1.50;1.20;;;;;;;22.33;52.02;101340.75;5008667;28;20050;-75
2021/08/29 17:21:27;;;;;;;3.38;1.70;;;;;;;22.35;52.08;101336.78;5011772;28;20191;-74
2021/08/29 17:23:54;;;;;;;3.00;1.70;;;;;;;22.34;52.05;101328.66;5006469;28;20080;-73
2021/08/29 17:26:21;;;;;;;2.72;1.67;;;;;;;22.34;51.88;101329.50;5012858;28;20046;-74
2021/08/29 17:28:47;;;;;;;2.53;1.60;;;;;;;22.34;52.04;101336.94;5009406;28;20504;-76
2021/08/29 17:31:15;;;;;;;3.47;2.00;;;;;;;22.35;52.00;101335.91;4998617;28;20069;-74
2021/08/29 17:33:42;;;;;;;3.30;1.92;;;;;;;22.35;52.15;101333.16;4989630;28;20046;-76
2021/08/29 17:36:11;;;;;;;4.75;2.38;;;;;;;22.34;52.08;101336.94;4990241;28;20543;-75
2021/08/29 17:38:39;;;;;;;4.47;2.20;;;;;;;22.33;52.43;101326.91;4989252;28;20070;-73
2021/08/29 17:41:06;;;;;;;3.70;2.30;;;;;;;22.32;52.17;101326.03;4988999;28;20074;-74
2021/08/29 17:43:32;;;;;;;3.90;2.42;;;;;;;22.32;52.18;101331.56;4990595;28;20125;-73
2021/08/29 17:45:59;;;;;;;4.32;2.40;;;;;;;22.31;51.94;101335.41;4988351;28;20493;-74
2021/08/29 17:48:27;;;;;;;3.08;1.90;;;;;;;22.31;52.11;101326.22;4992092;28;20261;-76
2021/08/29 17:50:54;;;;;;;3.75;2.38;;;;;;;22.32;52.05;101337.09;5008580;28;20432;-76
2021/08/29 17:53:22;;;;;;;3.22;2.20;;;;;;;22.30;52.20;101339.19;5008681;28;20125;-74
2021/08/29 17:55:49;;;;;;;3.55;2.10;;;;;;;22.31;52.38;101345.59;5009600;28;20073;-77
2021/08/29 17:58:15;;;;;;;3.88;2.47;;;;;;;22.29;51.96;101348.53;5008739;28;20076;-76
2021/08/29 18:03:18;;;;;;;3.67;2.40;;;;;;;22.27;52.43;101358.00;4948639;28;20097;-75
2021/08/29 18:05:45;;;;;;;4.40;2.45;;;;;;;22.26;52.57;101357.16;4938178;28;20050;-76
2021/08/29 18:08:11;;;;;;;4.18;2.55;;;;;;;22.26;52.32;101356.28;4949105;28;20074;-75
2021/08/29 18:10:38;;;;;;;5.32;2.85;;;;;;;22.25;52.67;101352.63;4949317;28;20138;-74
2021/08/29 18:13:04;;;;;;;3.85;2.58;;;;;;;22.24;52.04;101350.91;4957837;28;20400;-76
2021/08/29 18:15:31;;;;;;;4.20;3.00;;;;;;;22.24;52.05;101344.50;4952197;28;20070;-72
2021/08/29 18:17:58;;;;;;;4.25;3.00;;;;;;;22.23;52.39;101351.97;4931511;28;20126;-73
2021/08/29 18:20:26;;;;;;;4.25;2.95;;;;;;;22.24;52.39;101352.81;4955121;28;20160;-73
2021/08/29 18:22:52;;;;;;;5.55;3.13;;;;;;;22.22;52.57;101346.59;4935585;28;20607;-73
2021/08/29 18:25:19;;;;;;;4.63;3.10;;;;;;;22.22;52.63;101346.59;4960031;28;20054;-73
2021/08/29 18:27:46;;;;;;;4.53;3.17;;;;;;;22.21;52.35;101353.16;4954901;28;20786;-73
2021/08/29 18:30:14;;;;;;;4.32;3.15;;;;;;;22.22;52.33;101353.00;4951575;28;20169;-77
2021/08/29 18:32:42;;;;;;;5.50;3.60;;;;;;;22.21;52.53;101351.25;4955505;28;20554;-78
2021/08/29 18:35:10;;;;;;;5.47;3.95;;;;;;;22.21;52.31;101362.31;4953605;28;20493;-77
2021/08/29 18:37:37;;;;;;;4.65;3.60;;;;;;;22.19;52.51;101356.06;4961331;28;20415;-75
2021/08/29 18:40:04;;;;;;;8.00;4.40;;;;;;;22.18;52.57;101368.16;4968373;28;20097;-76
2021/08/29 18:42:33;;;;;;;6.30;4.38;;;;;;;22.17;52.77;101363.66;4971939;28;20090;-75
2021/08/29 18:45:02;;;;;;;6.13;4.60;;;;;;;22.18;52.85;101361.78;4961835;28;20046;-76
2021/08/29 18:47:29;;;;;;;6.75;4.45;;;;;;;22.16;52.78;101358.28;4958384;28;20047;-75
2021/08/29 18:49:55;;;;;;;6.55;4.03;;;;;;;22.16;52.89;101361.94;4954240;28;20485;-74
2021/08/29 18:52:22;;;;;;;6.55;4.20;;;;;;;22.14;52.77;101369.56;4970552;28;20097;-74
2021/08/29 18:54:48;;;;;;;6.13;4.28;;;;;;;22.15;53.11;101362.13;4955608;28;20069;-74
2021/08/29 18:57:15;;;;;;;5.38;3.85;;;;;;;22.14;52.91;101369.56;4985260;28;20161;-74
2021/08/29 18:59:42;;;;;;;5.53;3.75;;;;;;;22.13;52.99;101365.03;4976045;28;20066;-74
2021/08/29 19:02:09;;;;;;;4.78;3.35;;;;;;;22.13;53.39;101369.72;4972361;28;20070;-74
2021/08/29 19:04:37;;;;;;;5.47;3.28;;;;;;;22.11;53.23;101369.88;4949053;28;20453;-76
2021/08/29 19:07:06;;;;;;;5.60;3.38;;;;;;;22.09;53.40;101360.84;4965022;28;20109;-76
2021/08/29 19:09:34;;;;;;;4.80;2.80;;;;;;;22.09;53.53;101363.63;4966407;28;20493;-76
2021/08/29 19:12:01;;;;;;;4.50;2.83;;;;;;;22.07;53.36;101376.78;4949055;28;20121;-73
2021/08/29 19:14:28;;;;;;;5.68;2.95;;;;;;;22.04;53.46;101382.63;4977593;28;20728;-74
2021/08/29 19:16:54;;;;;;;4.30;3.10;;;;;;;22.00;53.74;101371.00;4961518;28;20082;-75
2021/08/29 19:19:21;;;;;;;4.32;2.80;;;;;;;21.98;53.47;101373.09;4959264;28;20472;-75
2021/08/29 19:21:47;;;;;;;4.03;2.65;;;;;;;21.97;53.53;101381.53;4969930;28;20054;-75
2021/08/29 19:24:14;;;;;;;3.78;2.65;;;;;;;21.94;53.62;101377.16;4975197;28;20073;-73
2021/08/29 19:26:40;;;;;;;3.40;2.40;;;;;;;21.93;54.00;101375.44;4950879;28;20196;-75
2021/08/29 19:29:10;;;;;;;3.90;2.40;;;;;;;21.96;54.24;101374.25;4956424;28;20408;-76
2021/08/29 19:31:36;;;;;;;3.85;2.50;;;;;;;21.92;54.18;101376.47;4977608;28;20130;-73
2021/08/29 19:34:03;;;;;;;3.13;2.05;;;;;;;21.93;53.80;101371.78;4970114;28;20070;-73
2021/08/29 19:36:30;;;;;;;3.58;2.60;;;;;;;21.93;54.27;101378.19;4968199;28;20120;-73
2021/08/29 19:38:56;;;;;;;3.90;2.88;;;;;;;21.92;54.25;101376.47;4966938;28;20043;-75
2021/08/29 19:41:23;;;;;;;3.95;3.00;;;;;;;21.92;54.08;101379.22;4947656;28;20531;-76
2021/08/29 19:43:49;;;;;;;4.10;3.03;;;;;;;21.92;54.32;101379.22;4971649;28;20055;-75
2021/08/29 19:46:16;;;;;;;3.95;2.95;;;;;;;21.93;53.96;101374.56;4950095;28;20039;-74
2021/08/29 19:48:44;;;;;;;4.72;3.13;;;;;;;21.92;54.40;101379.22;4950726;28;20134;-75
2021/08/29 19:51:14;;;;;;;3.80;2.80;;;;;;;21.91;54.00;101374.72;4970960;28;20492;-74
2021/08/29 19:53:41;;;;;;;4.47;3.05;;;;;;;21.91;54.65;101380.25;4965780;28;20112;-74
2021/08/29 19:56:21;;;;;;;3.83;2.67;;;;;;;21.91;54.65;101380.25;4969823;28;20047;-76
2021/08/29 19:58:48;;;;;;;3.60;2.53;;;;;;;21.92;54.66;101381.13;4968001;28;20046;-75
2021/08/29 20:01:14;;;;;;;4.13;2.92;;;;;;;21.93;54.39;101382.84;4951349;28;20138;-74
2021/08/29 20:03:41;;;;;;;4.50;2.83;;;;;;;21.93;54.62;101380.97;4975299;28;20287;-74
2021/08/29 20:06:08;;;;;;;4.15;2.60;;;;;;;21.91;54.27;101379.38;4966943;28;20039;-74
2021/08/29 20:08:35;;;;;;;3.70;2.53;;;;;;;21.91;54.56;101382.16;4958646;28;20090;-74
2021/08/29 20:11:01;;;;;;;3.95;2.60;;;;;;;21.92;54.70;101381.13;4976901;28;20066;-73
2021/08/29 20:13:28;;;;;;;3.65;2.67;;;;;;;21.92;54.62;101378.34;4972636;28;20134;-75
2021/08/29 20:15:58;;;;;;;4.13;2.50;;;;;;;21.93;54.59;101380.97;4973398;28;20050;-74
2021/08/29 20:18:24;;;;;;;4.57;2.75;;;;;;;21.94;54.73;101379.94;4961300;28;20038;-75
2021/08/29 20:20:51;;;;;;;4.95;2.85;;;;;;;21.94;54.63;101384.59;4982514;28;20100;-73
2021/08/29 20:23:18;;;;;;;5.10;3.00;;;;;;;21.94;54.51;101377.16;4998478;28;20045;-72
2021/08/29 20:25:46;;;;;;;3.97;2.70;;;;;;;21.96;54.69;101391.69;4992168;28;20138;-72
2021/08/29 20:28:12;;;;;;;4.10;2.85;;;;;;;21.94;54.84;101384.59;4995571;28;20053;-72
2021/08/29 20:30:39;;;;;;;4.40;3.15;;;;;;;21.94;54.84;101382.69;4992136;28;20050;-73
2021/08/29 20:33:05;;;;;;;5.85;3.85;;;;;;;21.93;55.03;101382.84;4996848;28;20066;-74
2021/08/29 20:35:32;;;;;;;4.60;3.40;;;;;;;21.94;54.71;101387.34;4982569;28;20568;-73
2021/08/29 20:37:58;;;;;;;4.70;3.42;;;;;;;21.94;54.83;101388.22;4980652;28;20052;-73
2021/08/29 20:40:25;;;;;;;5.15;3.60;;;;;;;21.94;54.92;101387.34;4992064;28;20531;-74
2021/08/29 20:42:51;;;;;;;4.97;3.53;;;;;;;21.94;54.59;101381.84;4970436;28;20080;-73
2021/08/29 20:45:18;;;;;;;5.00;3.92;;;;;;;21.94;55.03;101381.84;4972319;28;20043;-73
2021/08/29 20:47:45;;;;;;;5.80;3.58;;;;;;;21.96;55.11;101382.53;4992145;28;20085;-73
2021/08/29 20:50:12;;;;;;;5.13;3.88;;;;;;;21.96;54.73;101383.41;4962375;28;20058;-74
2021/08/29 20:52:38;;;;;;;5.30;4.15;;;;;;;21.95;55.04;101376.13;4979388;28;20046;-74
2021/08/29 20:55:05;;;;;;;5.13;3.90;;;;;;;21.97;55.10;101384.31;4985369;28;20185;-74
2021/08/29 20:57:32;;;;;;;5.68;4.32;;;;;;;21.95;55.23;101392.72;4987093;28;20241;-73
2021/08/29 21:00:00;;;;;;;4.95;3.88;;;;;;;21.94;55.05;101398.41;4989600;28;20081;-74
2021/08/29 21:02:28;;;;;;;6.05;4.63;;;;;;;21.95;55.04;101389.09;4986884;28;20279;-73
2021/08/29 21:04:54;;;;;;;6.30;4.30;;;;;;;21.94;54.69;101382.69;4982859;28;20069;-73
2021/08/29 21:07:21;;;;;;;5.32;4.10;;;;;;;21.94;54.73;101382.69;4989441;28;20092;-72
2021/08/29 21:09:47;;;;;;;7.15;4.60;;;;;;;21.93;54.75;101383.72;4989393;28;20169;-73
2021/08/29 21:12:14;;;;;;;7.47;4.90;;;;;;;21.92;55.10;101390.28;4994206;28;20133;-74
2021/08/29 21:14:41;;;;;;;6.95;4.72;;;;;;;21.92;55.03;101383.88;4989672;28;20069;-74
2021/08/29 21:17:07;;;;;;;5.35;3.97;;;;;;;21.90;54.90;101389.59;4986691;28;20046;-73
2021/08/29 21:19:37;;;;;;;5.97;4.60;;;;;;;21.91;54.73;101395.97;4984566;28;20651;-73
2021/08/29 21:22:05;;;;;;;6.60;4.90;;;;;;;21.91;55.07;101390.44;4987739;28;20054;-73
2021/08/29 21:24:32;;;;;;;6.82;5.15;;;;;;;21.91;55.42;101396.84;4987123;28;20101;-73
2021/08/29 21:26:58;;;;;;;6.25;4.60;;;;;;;21.89;55.06;101387.88;4986372;28;20429;-74
2021/08/29 21:29:25;;;;;;;6.78;5.15;;;;;;;21.91;55.28;101391.31;4975625;28;20297;-73
2021/08/29 21:31:52;;;;;;;7.45;5.38;;;;;;;21.90;55.34;101392.38;4985988;28;20064;-74
2021/08/29 21:34:18;;;;;;;7.32;5.75;;;;;;;21.90;54.90;101392.38;4998699;28;20600;-74
2021/08/29 21:36:45;;;;;;;7.40;5.15;;;;;;;21.90;55.40;101395.13;4983884;28;20085;-73
2021/08/29 21:39:11;;;;;;;7.95;6.18;;;;;;;21.92;55.22;101389.41;4973905;28;20267;-73
2021/08/29 21:41:40;;;;;;;6.95;5.70;;;;;;;21.94;54.89;101393.75;4988529;28;20133;-75
2021/08/29 21:44:07;;;;;;;7.20;5.75;;;;;;;21.92;55.40;101397.72;4981924;28;20158;-73
2021/08/29 21:46:34;;;;;;;8.85;6.20;;;;;;;21.92;55.30;101400.47;4971921;28;20129;-74
2021/08/29 21:49:00;;;;;;;7.00;5.68;;;;;;;21.93;54.97;101402.22;4968454;28;20085;-73
2021/08/29 21:51:27;;;;;;;7.43;5.78;;;;;;;21.93;54.72;101399.44;4987610;28;20049;-74
2021/08/29 21:53:54;;;;;;;6.80;5.63;;;;;;;21.94;55.46;101399.28;4980565;28;20048;-73
2021/08/29 21:56:20;;;;;;;7.47;5.68;;;;;;;21.94;55.42;101404.81;4995321;28;20096;-74
2021/08/29 21:58:47;;;;;;;7.32;5.80;;;;;;;21.94;55.31;101402.06;4988029;28;20056;-74
2021/08/29 22:01:13;;;;;;;7.25;5.85;;;;;;;21.94;54.98;101404.81;4988659;28;20125;-75
2021/08/29 22:03:40;;;;;;;7.50;6.13;;;;;;;21.94;55.33;101409.47;4986365;28;20065;-74
2021/08/29 22:06:07;;;;;;;7.57;5.57;;;;;;;21.95;55.38;101403.78;4981491;28;20050;-73
2021/08/29 22:08:33;;;;;;;6.35;5.40;;;;;;;21.94;54.83;101396.53;4992044;28;20062;-73
2021/08/29 22:11:00;;;;;;;6.88;5.80;;;;;;;21.94;54.82;101396.53;4993680;28;20137;-72
2021/08/29 22:13:26;;;;;;;7.03;5.85;;;;;;;21.94;55.34;101401.19;4994942;28;20064;-74
2021/08/29 22:15:53;;;;;;;7.57;5.10;;;;;;;21.93;55.32;101408.59;4972973;28;20141;-75
2021/08/29 22:18:20;;;;;;;7.50;5.30;;;;;;;21.93;55.21;101400.31;4970804;28;20133;-74
2021/08/29 22:20:47;;;;;;;6.63;5.00;;;;;;;21.93;55.48;101404.97;4990808;28;20133;-72
2021/08/29 22:23:13;;;;;;;7.07;5.20;;;;;;;21.92;55.28;101404.09;4978667;28;20078;-73
2021/08/29 22:25:40;;;;;;;7.30;5.43;;;;;;;21.94;55.39;101406.72;4993475;28;20049;-72
2021/08/29 22:28:07;;;;;;;6.43;5.28;;;;;;;21.94;55.06;101403.94;4968062;28;20411;-72
2021/08/29 22:30:33;;;;;;;6.90;5.07;;;;;;;21.93;55.37;101414.13;4990672;28;20073;-75
2021/08/29 22:33:00;;;;;;;6.35;5.05;;;;;;;21.93;54.83;101413.28;4991740;28;20042;-74
2021/08/29 22:35:26;;;;;;;5.88;4.75;;;;;;;21.93;55.42;101416.03;4993058;28;20077;-72
2021/08/29 22:37:53;;;;;;;6.10;4.93;;;;;;;21.93;55.11;101419.66;4992693;28;20160;-74
2021/08/29 22:40:20;;;;;;;6.55;4.90;;;;;;;21.93;54.95;101421.56;4987108;28;20129;-74
2021/08/29 22:42:46;;;;;;;6.00;4.82;;;;;;;21.91;55.20;101407.91;4959917;28;20061;-73
2021/08/29 22:45:13;;;;;;;6.15;4.85;;;;;;;21.91;54.96;101409.78;4994042;28;20061;-74
2021/08/29 22:47:39;;;;;;;6.53;4.55;;;;;;;21.91;54.94;101409.78;4962151;28;20121;-73
2021/08/29 22:50:06;;;;;;;6.15;4.68;;;;;;;21.91;55.09;101412.56;4985941;28;20620;-73
2021/08/29 22:52:33;;;;;;;6.43;4.72;;;;;;;21.89;55.35;101412.75;4967854;28;20052;-75